createdAt,value
2019-06-20T00:01:04.248Z,20.90
2019-06-20T00:03:34.824Z,20.90
2019-06-20T00:06:05.587Z,20.90
2019-06-20T00:08:36.054Z,20.90
2019-06-20T00:11:06.557Z,20.90
2019-06-20T00:13:37.350Z,20.80
2019-06-20T00:16:07.813Z,20.80
2019-06-20T00:18:38.192Z,20.80
2019-06-20T00:21:08.643Z,20.70
2019-06-20T00:23:38.773Z,20.70
2019-06-20T00:26:10.349Z,20.70
2019-06-20T00:28:40.731Z,20.70
2019-06-20T00:31:10.979Z,20.70
2019-06-20T00:33:41.945Z,20.70
2019-06-20T00:36:12.279Z,20.60
2019-06-20T00:38:43.007Z,20.60
2019-06-20T00:41:13.528Z,20.60
2019-06-20T00:43:44.244Z,20.60
2019-06-20T00:46:15.410Z,20.60
2019-06-20T00:48:45.644Z,20.60
2019-06-20T00:51:16.517Z,20.60
2019-06-20T00:53:46.961Z,20.60
2019-06-20T00:56:17.192Z,20.60
2019-06-20T00:58:47.594Z,20.60
2019-06-20T01:01:18.329Z,20.60
2019-06-20T01:03:48.685Z,20.50
2019-06-20T01:06:19.109Z,20.50
2019-06-20T01:08:49.509Z,20.50
2019-06-20T01:11:20.168Z,20.50
2019-06-20T01:13:52.861Z,20.50
2019-06-20T01:16:23.072Z,20.50
2019-06-20T01:18:53.595Z,20.50
2019-06-20T01:21:24.410Z,20.40
2019-06-20T01:23:54.695Z,20.40
2019-06-20T01:26:25.627Z,20.40
2019-06-20T01:28:55.952Z,20.40
2019-06-20T01:31:26.549Z,20.40
2019-06-20T01:33:56.821Z,20.40
2019-06-20T01:36:27.331Z,20.40
2019-06-20T01:38:57.793Z,20.40
2019-06-20T01:41:30.086Z,20.40
2019-06-20T01:44:00.543Z,20.40
2019-06-20T01:46:30.814Z,20.30
2019-06-20T01:49:01.273Z,20.30
2019-06-20T01:51:31.487Z,20.30
2019-06-20T01:54:01.974Z,20.20
2019-06-20T01:56:32.698Z,20.30
2019-06-20T01:59:03.577Z,20.30
2019-06-20T02:01:33.698Z,20.20
2019-06-20T02:04:03.983Z,20.20
2019-06-20T02:06:34.352Z,20.20
2019-06-20T02:09:06.630Z,20.20
2019-06-20T02:11:40.497Z,20.10
2019-06-20T02:14:11.745Z,20.10
2019-06-20T02:16:42.348Z,20.10
2019-06-20T02:19:12.890Z,20.10
2019-06-20T02:21:43.277Z,20.20
2019-06-20T02:24:14.721Z,20.10
2019-06-20T02:26:45.069Z,20.10
2019-06-20T02:29:15.376Z,20.10
2019-06-20T02:31:45.537Z,20.10
2019-06-20T02:34:15.998Z,20.10
2019-06-20T02:36:46.210Z,20.10
2019-06-20T02:39:16.683Z,20.00
2019-06-20T02:41:47.325Z,20.00
2019-06-20T02:44:30.142Z,20.00
2019-06-20T02:46:50.973Z,20.00
2019-06-20T02:49:21.971Z,20.00
2019-06-20T02:51:52.390Z,20.00
2019-06-20T02:54:23.022Z,20.00
2019-06-20T02:56:53.248Z,20.00
2019-06-20T02:59:23.449Z,20.00
2019-06-20T03:01:54.013Z,20.00
2019-06-20T03:04:24.595Z,20.00
2019-06-20T03:06:55.059Z,20.00
2019-06-20T03:09:25.504Z,19.90
2019-06-20T03:11:55.761Z,19.90
2019-06-20T03:14:25.953Z,19.90
2019-06-20T03:16:56.268Z,19.80
2019-06-20T03:19:26.583Z,19.80
2019-06-20T03:21:56.798Z,19.80
2019-06-20T03:24:27.242Z,19.80
2019-06-20T03:26:57.639Z,19.70
2019-06-20T03:29:27.951Z,19.80
2019-06-20T03:31:58.365Z,19.70
2019-06-20T03:34:28.657Z,19.70
2019-06-20T03:36:58.892Z,19.70
2019-06-20T03:39:29.352Z,19.70
2019-06-20T03:41:59.574Z,19.70
2019-06-20T03:44:29.761Z,19.80
2019-06-20T03:47:00.095Z,19.70
2019-06-20T03:49:30.473Z,19.70
2019-06-20T03:52:08.666Z,19.70
2019-06-20T03:54:39.013Z,19.70
2019-06-20T03:57:09.163Z,19.70
2019-06-20T03:59:39.365Z,19.70
2019-06-20T04:02:10.042Z,19.70
2019-06-20T04:04:42.482Z,19.70
2019-06-20T04:07:14.120Z,19.70
2019-06-20T04:09:45.542Z,19.70
2019-06-20T04:12:18.113Z,19.70
2019-06-20T04:14:49.272Z,19.70
2019-06-20T04:17:22.052Z,19.70
2019-06-20T04:19:52.313Z,19.70
2019-06-20T04:22:27.269Z,19.70
2019-06-20T04:24:59.393Z,19.70
2019-06-20T04:27:29.563Z,19.60
2019-06-20T04:30:02.798Z,19.60
2019-06-20T04:32:33.735Z,19.60
2019-06-20T04:35:05.483Z,19.60
2019-06-20T04:37:36.373Z,19.60
2019-06-20T04:40:07.699Z,19.60
2019-06-20T04:42:38.243Z,19.60
2019-06-20T04:45:34.118Z,19.60
2019-06-20T04:47:52.715Z,19.70
2019-06-20T04:50:23.207Z,19.70
2019-06-20T04:52:53.660Z,19.70
2019-06-20T04:55:24.539Z,19.70
2019-06-20T04:57:54.999Z,19.70
2019-06-20T05:00:25.889Z,19.80
2019-06-20T05:02:56.624Z,19.80
2019-06-20T05:05:26.868Z,19.90
2019-06-20T05:07:57.318Z,19.90
2019-06-20T05:10:27.961Z,19.90
2019-06-20T05:12:58.539Z,20.00
2019-06-20T05:15:28.906Z,20.10
2019-06-20T05:17:59.026Z,20.10
2019-06-20T05:20:29.254Z,20.20
2019-06-20T05:22:59.467Z,20.30
2019-06-20T05:25:34.642Z,20.30
2019-06-20T05:28:06.648Z,20.30
2019-06-20T05:30:55.884Z,20.50
2019-06-20T05:33:26.454Z,20.50
2019-06-20T05:35:56.582Z,20.60
2019-06-20T05:38:26.993Z,20.70
2019-06-20T05:40:58.052Z,20.80
2019-06-20T05:43:28.697Z,20.80
2019-06-20T05:46:09.249Z,20.90
2019-06-20T05:48:33.990Z,21.00
2019-06-20T05:51:04.318Z,21.00
2019-06-20T05:53:34.462Z,21.10
2019-06-20T05:56:04.822Z,21.20
2019-06-20T05:58:35.086Z,21.30
2019-06-20T06:01:05.532Z,21.40
2019-06-20T06:03:35.828Z,21.40
2019-06-20T06:06:06.509Z,21.50
2019-06-20T06:08:36.789Z,21.60
2019-06-20T06:11:08.567Z,21.70
2019-06-20T06:13:38.825Z,21.80
2019-06-20T06:16:22.580Z,21.80
2019-06-20T06:18:41.111Z,21.90
2019-06-20T06:21:11.792Z,21.90
2019-06-20T06:23:42.029Z,21.90
2019-06-20T06:26:12.627Z,21.80
2019-06-20T06:28:42.689Z,21.90
2019-06-20T06:31:12.932Z,21.90
2019-06-20T06:33:43.108Z,22.00
2019-06-20T06:36:13.371Z,22.00
2019-06-20T06:38:44.089Z,22.00
2019-06-20T06:41:14.244Z,22.00
2019-06-20T06:43:44.535Z,22.10
2019-06-20T06:46:14.791Z,22.10
2019-06-20T06:48:45.085Z,22.20
2019-06-20T06:51:16.011Z,22.20
2019-06-20T06:53:46.330Z,22.20
2019-06-20T06:56:16.535Z,22.20
2019-06-20T06:58:46.844Z,22.10
2019-06-20T07:01:17.116Z,22.10
2019-06-20T07:03:47.348Z,22.10
2019-06-20T07:06:17.608Z,22.10
2019-06-20T07:08:47.763Z,22.20
2019-06-20T07:11:18.145Z,22.20
2019-06-20T07:13:48.397Z,22.30
2019-06-20T07:16:18.794Z,22.30
2019-06-20T07:18:48.976Z,22.40
2019-06-20T07:21:19.255Z,22.40
2019-06-20T07:23:49.805Z,22.40
2019-06-20T07:26:20.361Z,22.50
2019-06-20T07:28:51.589Z,22.70
2019-06-20T07:31:21.866Z,22.90
2019-06-20T07:33:52.132Z,23.10
2019-06-20T07:36:22.428Z,23.20
2019-06-20T07:38:52.839Z,23.40
2019-06-20T07:41:23.117Z,23.50
2019-06-20T07:43:53.341Z,23.50
2019-06-20T07:46:23.610Z,23.60
2019-06-20T07:48:53.834Z,23.60
2019-06-20T07:51:24.203Z,23.70
2019-06-20T07:53:54.410Z,23.80
2019-06-20T07:56:24.879Z,23.80
2019-06-20T07:58:55.242Z,23.90
2019-06-20T08:01:25.462Z,23.90
2019-06-20T08:03:56.914Z,23.90
2019-06-20T08:06:27.757Z,23.90
2019-06-20T08:08:58.485Z,23.80
2019-06-20T08:11:29.439Z,23.70
2019-06-20T08:14:01.703Z,23.60
2019-06-20T08:16:32.208Z,23.60
2019-06-20T08:19:02.691Z,23.50
2019-06-20T08:21:33.610Z,23.50
2019-06-20T08:24:04.197Z,23.40
2019-06-20T08:26:34.420Z,23.40
2019-06-20T08:29:19.714Z,23.30
2019-06-20T08:31:37.747Z,23.40
2019-06-20T08:34:08.513Z,23.40
2019-06-20T08:36:40.087Z,23.30
2019-06-20T08:39:10.710Z,23.40
2019-06-20T08:41:40.874Z,23.30
2019-06-20T08:44:12.546Z,23.40
2019-06-20T08:46:42.736Z,23.40
2019-06-20T08:49:13.102Z,23.40
2019-06-20T08:51:43.477Z,23.40
2019-06-20T08:54:14.034Z,23.50
2019-06-20T08:56:45.581Z,23.50
2019-06-20T08:59:24.246Z,23.60
2019-06-20T09:01:48.025Z,23.70
2019-06-20T09:04:18.267Z,23.80
2019-06-20T09:06:50.164Z,23.80
2019-06-20T09:09:20.585Z,24.00
2019-06-20T09:11:51.800Z,24.10
2019-06-20T09:14:22.074Z,24.20
2019-06-20T09:16:52.281Z,24.30
2019-06-20T09:19:23.304Z,24.50
2019-06-20T09:21:54.175Z,24.80
2019-06-20T09:24:24.370Z,25.00
2019-06-20T09:26:55.425Z,25.20
2019-06-20T09:29:38.347Z,25.30
2019-06-20T09:31:58.563Z,25.40
2019-06-20T09:34:29.466Z,25.50
2019-06-20T09:36:59.609Z,25.70
2019-06-20T09:39:29.715Z,25.70
2019-06-20T09:42:00.069Z,25.70
2019-06-20T09:44:30.526Z,25.70
2019-06-20T09:47:00.659Z,25.80
2019-06-20T09:49:31.187Z,25.80
2019-06-20T09:52:01.623Z,25.70
2019-06-20T09:54:31.921Z,25.80
2019-06-20T09:57:02.096Z,26.00
2019-06-20T09:59:32.549Z,26.00
2019-06-20T10:02:03.016Z,26.00
2019-06-20T10:04:33.313Z,26.00
2019-06-20T10:07:03.685Z,25.90
2019-06-20T10:09:33.950Z,25.80
2019-06-20T10:12:04.452Z,25.70
2019-06-20T10:14:35.719Z,25.70
2019-06-20T10:17:06.037Z,25.60
2019-06-20T10:19:36.173Z,25.60
2019-06-20T10:22:06.633Z,25.70
2019-06-20T10:24:36.942Z,25.70
2019-06-20T10:27:07.469Z,25.60
2019-06-20T10:29:37.895Z,25.70
2019-06-20T10:32:08.218Z,25.70
2019-06-20T10:34:38.974Z,25.80
2019-06-20T10:37:09.164Z,25.90
2019-06-20T10:39:39.321Z,25.90
2019-06-20T10:42:09.687Z,25.90
2019-06-20T10:44:40.137Z,25.90
2019-06-20T10:47:13.281Z,25.80
2019-06-20T10:49:44.597Z,25.80
2019-06-20T10:52:16.030Z,25.70
2019-06-20T10:54:47.069Z,25.70
2019-06-20T10:57:18.202Z,25.80
2019-06-20T10:59:48.589Z,25.60
2019-06-20T11:02:19.367Z,25.70
2019-06-20T11:04:50.264Z,25.70
2019-06-20T11:07:20.686Z,25.80
2019-06-20T11:09:50.864Z,25.80
2019-06-20T11:12:21.728Z,25.80
2019-06-20T11:14:51.927Z,26.00
2019-06-20T11:17:22.441Z,26.00
2019-06-20T11:19:54.216Z,26.00
2019-06-20T11:22:24.684Z,26.10
2019-06-20T11:24:56.897Z,26.10
2019-06-20T11:27:27.023Z,26.10
2019-06-20T11:29:57.360Z,26.20
2019-06-20T11:32:28.009Z,26.30
2019-06-20T11:34:58.210Z,26.20
2019-06-20T11:37:28.301Z,26.30
2019-06-20T11:39:58.861Z,26.20
2019-06-20T11:42:29.309Z,26.20
2019-06-20T11:44:59.658Z,26.20
2019-06-20T11:47:30.335Z,26.30
2019-06-20T11:50:01.069Z,26.40
2019-06-20T11:52:36.902Z,26.30
2019-06-20T11:55:05.264Z,26.20
2019-06-20T11:57:36.537Z,26.30
2019-06-20T12:00:09.020Z,26.30
2019-06-20T12:02:40.514Z,26.40
2019-06-20T12:05:11.864Z,26.40
2019-06-20T12:07:45.508Z,26.50
2019-06-20T12:10:16.390Z,26.50
2019-06-20T12:12:46.930Z,26.40
2019-06-20T12:15:18.626Z,26.40
2019-06-20T12:17:49.446Z,26.50
2019-06-20T12:20:21.552Z,26.50
2019-06-20T12:22:52.410Z,26.40
2019-06-20T12:25:22.860Z,26.40
2019-06-20T12:27:53.111Z,26.30
2019-06-20T12:30:23.446Z,26.20
2019-06-20T12:32:54.208Z,26.30
2019-06-20T12:35:24.671Z,26.20
2019-06-20T12:37:55.094Z,26.20
2019-06-20T12:40:26.541Z,26.30
2019-06-20T12:42:57.679Z,26.30
2019-06-20T12:45:27.881Z,26.20
2019-06-20T12:47:58.168Z,26.20
2019-06-20T12:50:28.518Z,26.20
2019-06-20T12:53:00.495Z,26.20
2019-06-20T12:55:31.422Z,26.30
2019-06-20T12:58:01.614Z,26.30
2019-06-20T13:00:32.755Z,26.30
2019-06-20T13:03:02.989Z,26.30
2019-06-20T13:05:33.310Z,26.40
2019-06-20T13:08:03.632Z,26.50
2019-06-20T13:10:34.908Z,26.60
2019-06-20T13:13:05.087Z,26.70
2019-06-20T13:15:35.915Z,26.70
2019-06-20T13:18:06.269Z,26.70
2019-06-20T13:20:38.802Z,26.60
2019-06-20T13:23:10.103Z,26.70
2019-06-20T13:25:40.966Z,26.70
2019-06-20T13:28:12.561Z,26.90
2019-06-20T13:30:47.224Z,26.90
2019-06-20T13:33:15.220Z,27.00
2019-06-20T13:35:45.543Z,27.10
2019-06-20T13:38:15.870Z,27.20
2019-06-20T13:40:47.229Z,27.20
2019-06-20T13:43:17.438Z,27.20
2019-06-20T13:45:47.590Z,27.20
2019-06-20T13:48:18.533Z,27.20
2019-06-20T13:50:49.671Z,27.20
2019-06-20T13:53:20.013Z,27.20
2019-06-20T13:55:50.386Z,27.30
2019-06-20T13:58:23.833Z,27.30
2019-06-20T14:00:54.696Z,27.50
2019-06-20T14:03:25.081Z,27.50
2019-06-20T14:05:55.912Z,27.50
2019-06-20T14:08:26.400Z,27.50
2019-06-20T14:10:56.786Z,27.50
2019-06-20T14:13:26.945Z,27.40
2019-06-20T14:15:57.736Z,27.20
2019-06-20T14:18:27.874Z,27.10
2019-06-20T14:20:58.389Z,27.10
2019-06-20T14:23:28.539Z,27.00
2019-06-20T14:25:58.849Z,27.00
2019-06-20T14:28:29.071Z,26.80
2019-06-20T14:30:59.274Z,26.60
2019-06-20T14:33:31.859Z,26.40
2019-06-20T14:36:01.687Z,26.20
2019-06-20T14:38:31.909Z,26.20
2019-06-20T14:41:02.035Z,26.20
2019-06-20T14:43:32.466Z,26.00
2019-06-20T14:46:02.927Z,26.00
2019-06-20T14:48:33.064Z,26.00
2019-06-20T14:51:03.358Z,25.90
2019-06-20T14:53:33.486Z,25.80
2019-06-20T14:56:03.861Z,25.70
2019-06-20T14:58:34.042Z,25.60
2019-06-20T15:01:04.265Z,25.30
2019-06-20T15:03:34.788Z,25.20
2019-06-20T15:06:05.402Z,25.10
2019-06-20T15:08:35.799Z,25.00
2019-06-20T15:11:06.318Z,25.10
2019-06-20T15:13:36.508Z,25.10
2019-06-20T15:16:07.111Z,25.10
2019-06-20T15:18:37.428Z,25.00
2019-06-20T15:21:07.760Z,25.00
2019-06-20T15:23:38.155Z,25.00
2019-06-20T15:26:08.750Z,25.10
2019-06-20T15:28:38.966Z,25.10
2019-06-20T15:31:09.522Z,25.20
2019-06-20T15:33:40.223Z,25.30
2019-06-20T15:36:10.671Z,25.50
2019-06-20T15:38:41.976Z,25.50
2019-06-20T15:41:12.595Z,25.50
2019-06-20T15:43:43.090Z,25.60
2019-06-20T15:46:13.337Z,25.60
2019-06-20T15:48:43.545Z,25.70
2019-06-20T15:51:13.858Z,25.70
2019-06-20T15:53:44.127Z,25.50
2019-06-20T15:56:14.246Z,25.40
2019-06-20T15:58:44.595Z,25.30
2019-06-20T16:01:15.322Z,25.20
2019-06-20T16:03:45.794Z,25.00
2019-06-20T16:06:16.147Z,24.80
2019-06-20T16:08:50.042Z,24.70
2019-06-20T16:11:20.245Z,24.60
2019-06-20T16:13:50.384Z,24.60
2019-06-20T16:16:21.780Z,24.70
2019-06-20T16:18:51.984Z,24.90
2019-06-20T16:21:22.160Z,25.00
2019-06-20T16:23:52.775Z,24.90
2019-06-20T16:26:25.578Z,25.00
2019-06-20T16:28:56.066Z,24.90
2019-06-20T16:31:27.280Z,24.80
2019-06-20T16:33:57.594Z,24.70
2019-06-20T16:36:28.692Z,24.70
2019-06-20T16:39:01.159Z,24.60
2019-06-20T16:41:33.327Z,24.50
2019-06-20T16:44:03.787Z,24.40
2019-06-20T16:46:34.009Z,24.50
2019-06-20T16:49:04.147Z,24.60
2019-06-20T16:51:34.345Z,24.60
2019-06-20T16:54:04.798Z,24.70
2019-06-20T16:56:35.691Z,24.50
2019-06-20T16:59:07.177Z,24.40
2019-06-20T17:01:37.863Z,24.30
2019-06-20T17:04:08.103Z,24.20
2019-06-20T17:06:38.349Z,24.10
2019-06-20T17:09:10.044Z,24.00
2019-06-20T17:11:40.373Z,24.00
2019-06-20T17:14:10.488Z,24.00
2019-06-20T17:16:41.241Z,23.90
2019-06-20T17:19:11.790Z,23.80
2019-06-20T17:21:42.179Z,23.70
2019-06-20T17:24:12.273Z,23.50
2019-06-20T17:26:42.574Z,23.50
2019-06-20T17:29:13.377Z,23.40
2019-06-20T17:31:43.723Z,23.40
2019-06-20T17:34:14.199Z,23.40
2019-06-20T17:36:44.761Z,23.40
2019-06-20T17:39:15.187Z,23.40
2019-06-20T17:41:54.943Z,23.30
2019-06-20T17:44:17.548Z,23.30
2019-06-20T17:46:48.010Z,23.30
2019-06-20T17:49:18.375Z,23.30
2019-06-20T17:51:48.512Z,23.30
2019-06-20T17:54:19.029Z,23.30
2019-06-20T17:56:49.420Z,23.30
2019-06-20T17:59:22.674Z,23.20
2019-06-20T18:01:51.641Z,23.30
2019-06-20T18:04:21.853Z,23.20
2019-06-20T18:06:52.278Z,23.20
2019-06-20T18:09:22.460Z,23.20
2019-06-20T18:11:52.812Z,23.20
2019-06-20T18:14:23.201Z,23.20
2019-06-20T18:16:53.635Z,23.20
2019-06-20T18:19:24.069Z,23.20
2019-06-20T18:21:55.160Z,23.20
2019-06-20T18:24:25.929Z,23.30
2019-06-20T18:26:56.376Z,23.20
2019-06-20T18:29:27.034Z,23.20
2019-06-20T18:31:57.365Z,23.10
2019-06-20T18:34:30.310Z,23.10
2019-06-20T18:37:01.189Z,23.10
2019-06-20T18:39:33.153Z,23.00
2019-06-20T18:42:03.764Z,23.00
2019-06-20T18:44:34.331Z,23.00
2019-06-20T18:47:04.838Z,23.00
2019-06-20T18:49:35.566Z,22.90
2019-06-20T18:52:06.172Z,23.00
2019-06-20T18:54:36.400Z,22.90
2019-06-20T18:57:08.902Z,22.90
2019-06-20T18:59:39.465Z,22.80
2019-06-20T19:02:10.047Z,22.80
2019-06-20T19:04:47.725Z,22.80
2019-06-20T19:07:13.454Z,22.70
2019-06-20T19:09:43.932Z,22.70
2019-06-20T19:12:14.470Z,22.70
2019-06-20T19:14:44.755Z,22.70
2019-06-20T19:17:15.274Z,22.60
2019-06-20T19:19:45.651Z,22.60
2019-06-20T19:22:15.955Z,22.60
2019-06-20T19:24:46.528Z,22.50
2019-06-20T19:27:17.035Z,22.40
2019-06-20T19:29:49.667Z,22.40
2019-06-20T19:32:19.506Z,22.40
2019-06-20T19:35:01.428Z,22.30
2019-06-20T19:37:23.367Z,22.30
2019-06-20T19:39:53.851Z,22.20
2019-06-20T19:42:25.202Z,22.20
2019-06-20T19:44:55.537Z,22.20
2019-06-20T19:47:26.895Z,22.20
2019-06-20T19:49:57.491Z,22.10
2019-06-20T19:52:27.905Z,22.10
2019-06-20T19:54:58.717Z,22.10
2019-06-20T19:57:29.179Z,22.10
2019-06-20T20:00:01.019Z,22.10
2019-06-20T20:02:31.605Z,22.10
2019-06-20T20:05:17.803Z,22.10
2019-06-20T20:07:35.404Z,22.10
2019-06-20T20:10:07.067Z,22.10
2019-06-20T20:12:37.688Z,22.10
2019-06-20T20:15:09.152Z,22.00
2019-06-20T20:17:41.818Z,22.00
2019-06-20T20:20:12.425Z,22.00
2019-06-20T20:22:42.848Z,22.00
2019-06-20T20:25:13.268Z,22.00
2019-06-20T20:27:43.747Z,22.00
2019-06-20T20:30:16.166Z,22.10
2019-06-20T20:32:46.801Z,22.10
2019-06-20T20:35:17.244Z,22.10
2019-06-20T20:37:47.533Z,22.10
2019-06-20T20:40:18.255Z,22.00
2019-06-20T20:42:48.704Z,22.10
2019-06-20T20:45:19.454Z,22.10
2019-06-20T20:47:49.681Z,22.10
2019-06-20T20:50:20.100Z,22.20
2019-06-20T20:52:50.453Z,22.20
2019-06-20T20:55:21.452Z,22.20
2019-06-20T20:57:51.804Z,22.10
2019-06-20T21:00:25.536Z,22.10
2019-06-20T21:02:56.280Z,22.00
2019-06-20T21:05:26.891Z,22.00
2019-06-20T21:07:57.291Z,22.00
2019-06-20T21:10:28.130Z,22.00
2019-06-20T21:12:58.358Z,22.00
2019-06-20T21:15:28.833Z,21.90
2019-06-20T21:17:59.763Z,21.90
2019-06-20T21:20:32.056Z,21.90
2019-06-20T21:23:02.710Z,21.80
2019-06-20T21:25:33.463Z,21.80
2019-06-20T21:28:03.766Z,21.80
2019-06-20T21:30:34.087Z,21.80
2019-06-20T21:33:04.376Z,21.80
2019-06-20T21:35:34.851Z,21.80
2019-06-20T21:38:05.278Z,21.70
2019-06-20T21:40:35.550Z,21.70
2019-06-20T21:43:06.040Z,21.70
2019-06-20T21:45:36.607Z,21.70
2019-06-20T21:48:07.510Z,21.60
2019-06-20T21:50:37.825Z,21.60
2019-06-20T21:53:08.179Z,21.50
2019-06-20T21:55:38.889Z,21.50
2019-06-20T21:58:09.730Z,21.50
2019-06-20T22:00:45.058Z,21.40
2019-06-20T22:03:16.013Z,21.40
2019-06-20T22:05:46.744Z,21.40
2019-06-20T22:08:17.250Z,21.40
2019-06-20T22:10:49.383Z,21.40
2019-06-20T22:13:19.765Z,21.40
2019-06-20T22:15:50.350Z,21.40
2019-06-20T22:18:20.964Z,21.40
2019-06-20T22:20:52.695Z,21.30
2019-06-20T22:23:23.707Z,21.30
2019-06-20T22:25:53.811Z,21.40
2019-06-20T22:28:24.531Z,21.40
2019-06-20T22:30:55.704Z,21.40
2019-06-20T22:33:26.794Z,21.40
2019-06-20T22:35:57.224Z,21.50
2019-06-20T22:38:27.560Z,21.40
2019-06-20T22:41:00.446Z,21.40
2019-06-20T22:43:30.666Z,21.40
2019-06-20T22:46:01.475Z,21.30
2019-06-20T22:48:34.323Z,21.30
2019-06-20T22:51:07.242Z,21.40
2019-06-20T22:53:37.676Z,21.40
2019-06-20T22:56:08.060Z,21.40
2019-06-20T22:58:38.560Z,21.30
2019-06-20T23:01:09.116Z,21.30
2019-06-20T23:03:39.774Z,21.30
2019-06-20T23:06:10.122Z,21.30
2019-06-20T23:08:40.324Z,21.30
2019-06-20T23:11:10.590Z,21.30
2019-06-20T23:13:41.038Z,21.30
2019-06-20T23:16:11.554Z,21.30
2019-06-20T23:18:41.722Z,21.30
2019-06-20T23:21:11.983Z,21.40
2019-06-20T23:23:42.331Z,21.30
2019-06-20T23:26:13.803Z,21.30
2019-06-20T23:28:45.510Z,21.40
2019-06-20T23:31:15.890Z,21.40
2019-06-20T23:33:46.957Z,21.40
2019-06-20T23:36:17.167Z,21.40
2019-06-20T23:38:48.744Z,21.30
2019-06-20T23:41:19.048Z,21.40
2019-06-20T23:43:49.288Z,21.30
2019-06-20T23:46:19.877Z,21.40
2019-06-20T23:48:50.616Z,21.40
2019-06-20T23:51:25.585Z,21.40
2019-06-20T23:53:54.535Z,21.40
2019-06-20T23:56:24.760Z,21.40
2019-06-20T23:58:55.119Z,21.50
